sensor_id;sensor_type;location;lat;lon;timestamp;P1;durP1;ratioP1;P2;durP2;ratioP2
38783;SDS011;24531;45.502;12.238;2023-10-08T00:02:18;19.42;;;12.05;;
38783;SDS011;24531;45.502;12.238;2023-10-08T00:04:47;17.98;;;12.98;;
38783;SDS011;24531;45.502;12.238;2023-10-08T00:07:16;21.83;;;14.30;;
38783;SDS011;24531;45.502;12.238;2023-10-08T00:09:46;20.42;;;13.93;;
38783;SDS011;24531;45.502;12.238;2023-10-08T00:12:19;22.33;;;13.45;;
38783;SDS011;24531;45.502;12.238;2023-10-08T00:14:46;20.73;;;14.00;;
38783;SDS011;24531;45.502;12.238;2023-10-08T00:17:14;27.33;;;15.18;;
38783;SDS011;24531;45.502;12.238;2023-10-08T00:19:41;22.65;;;14.98;;
38783;SDS011;24531;45.502;12.238;2023-10-08T00:22:09;21.05;;;13.18;;
38783;SDS011;24531;45.502;12.238;2023-10-08T00:24:43;26.83;;;14.23;;
38783;SDS011;24531;45.502;12.238;2023-10-08T00:27:11;24.02;;;13.85;;
38783;SDS011;24531;45.502;12.238;2023-10-08T00:29:39;24.05;;;15.40;;
38783;SDS011;24531;45.502;12.238;2023-10-08T00:32:08;24.73;;;14.52;;
38783;SDS011;24531;45.502;12.238;2023-10-08T00:34:37;24.63;;;14.20;;
38783;SDS011;24531;45.502;12.238;2023-10-08T00:37:06;25.25;;;13.63;;
38783;SDS011;24531;45.502;12.238;2023-10-08T00:39:34;25.80;;;15.25;;
38783;SDS011;24531;45.502;12.238;2023-10-08T00:42:02;23.35;;;15.35;;
38783;SDS011;24531;45.502;12.238;2023-10-08T00:44:29;25.65;;;15.45;;
38783;SDS011;24531;45.502;12.238;2023-10-08T00:46:56;26.30;;;16.67;;
38783;SDS011;24531;45.502;12.238;2023-10-08T00:49:25;25.05;;;16.83;;
38783;SDS011;24531;45.502;12.238;2023-10-08T00:51:57;25.05;;;16.05;;
38783;SDS011;24531;45.502;12.238;2023-10-08T00:54:28;25.88;;;15.70;;
38783;SDS011;24531;45.502;12.238;2023-10-08T00:56:58;28.02;;;15.23;;
38783;SDS011;24531;45.502;12.238;2023-10-08T00:59:29;25.00;;;15.30;;
38783;SDS011;24531;45.502;12.238;2023-10-08T01:02:02;24.40;;;15.13;;
38783;SDS011;24531;45.502;12.238;2023-10-08T01:04:31;23.90;;;15.57;;
38783;SDS011;24531;45.502;12.238;2023-10-08T01:07:00;28.33;;;15.35;;
38783;SDS011;24531;45.502;12.238;2023-10-08T01:09:47;25.17;;;16.92;;
38783;SDS011;24531;45.502;12.238;2023-10-08T01:12:22;27.30;;;18.25;;
38783;SDS011;24531;45.502;12.238;2023-10-08T01:14:53;29.80;;;17.02;;
38783;SDS011;24531;45.502;12.238;2023-10-08T01:17:22;28.23;;;16.88;;
38783;SDS011;24531;45.502;12.238;2023-10-08T01:19:57;29.48;;;16.88;;
38783;SDS011;24531;45.502;12.238;2023-10-08T01:22:55;25.13;;;15.98;;
38783;SDS011;24531;45.502;12.238;2023-10-08T01:25:22;25.35;;;16.83;;
38783;SDS011;24531;45.502;12.238;2023-10-08T01:27:54;26.77;;;17.50;;
38783;SDS011;24531;45.502;12.238;2023-10-08T01:30:28;27.42;;;17.40;;
38783;SDS011;24531;45.502;12.238;2023-10-08T01:33:00;24.30;;;16.08;;
38783;SDS011;24531;45.502;12.238;2023-10-08T01:35:27;29.33;;;17.30;;
38783;SDS011;24531;45.502;12.238;2023-10-08T01:37:56;26.42;;;17.67;;
38783;SDS011;24531;45.502;12.238;2023-10-08T01:40:24;27.70;;;17.50;;
38783;SDS011;24531;45.502;12.238;2023-10-08T01:42:50;24.90;;;17.35;;
38783;SDS011;24531;45.502;12.238;2023-10-08T01:45:16;26.92;;;17.88;;
38783;SDS011;24531;45.502;12.238;2023-10-08T01:47:44;28.90;;;16.90;;
38783;SDS011;24531;45.502;12.238;2023-10-08T01:50:10;24.33;;;16.05;;
38783;SDS011;24531;45.502;12.238;2023-10-08T01:52:49;26.23;;;16.33;;
38783;SDS011;24531;45.502;12.238;2023-10-08T01:55:18;25.85;;;17.08;;
38783;SDS011;24531;45.502;12.238;2023-10-08T01:57:48;27.45;;;17.20;;
38783;SDS011;24531;45.502;12.238;2023-10-08T02:00:18;32.80;;;17.40;;
38783;SDS011;24531;45.502;12.238;2023-10-08T02:02:44;25.15;;;16.77;;
38783;SDS011;24531;45.502;12.238;2023-10-08T02:07:44;25.83;;;16.30;;
38783;SDS011;24531;45.502;12.238;2023-10-08T02:10:10;26.98;;;16.77;;
38783;SDS011;24531;45.502;12.238;2023-10-08T02:12:37;23.20;;;16.30;;
38783;SDS011;24531;45.502;12.238;2023-10-08T02:15:03;25.30;;;16.73;;
38783;SDS011;24531;45.502;12.238;2023-10-08T02:17:31;27.20;;;16.83;;
38783;SDS011;24531;45.502;12.238;2023-10-08T02:19:57;28.90;;;18.17;;
38783;SDS011;24531;45.502;12.238;2023-10-08T02:22:23;26.25;;;16.60;;
38783;SDS011;24531;45.502;12.238;2023-10-08T02:24:49;27.42;;;15.95;;
38783;SDS011;24531;45.502;12.238;2023-10-08T02:27:16;26.48;;;17.15;;
38783;SDS011;24531;45.502;12.238;2023-10-08T02:29:42;28.80;;;17.20;;
38783;SDS011;24531;45.502;12.238;2023-10-08T02:32:07;27.52;;;18.25;;
38783;SDS011;24531;45.502;12.238;2023-10-08T02:34:34;28.70;;;17.77;;
38783;SDS011;24531;45.502;12.238;2023-10-08T02:37:00;28.98;;;19.58;;
38783;SDS011;24531;45.502;12.238;2023-10-08T02:39:28;26.58;;;17.73;;
38783;SDS011;24531;45.502;12.238;2023-10-08T02:41:55;27.88;;;18.90;;
38783;SDS011;24531;45.502;12.238;2023-10-08T02:44:24;28.60;;;17.90;;
38783;SDS011;24531;45.502;12.238;2023-10-08T02:46:51;30.27;;;19.45;;
38783;SDS011;24531;45.502;12.238;2023-10-08T02:49:17;29.73;;;19.15;;
38783;SDS011;24531;45.502;12.238;2023-10-08T02:51:46;27.13;;;18.42;;
38783;SDS011;24531;45.502;12.238;2023-10-08T02:54:15;27.95;;;19.50;;
38783;SDS011;24531;45.502;12.238;2023-10-08T02:56:42;32.25;;;20.17;;
38783;SDS011;24531;45.502;12.238;2023-10-08T02:59:10;30.80;;;19.13;;
38783;SDS011;24531;45.502;12.238;2023-10-08T03:01:37;30.00;;;19.77;;
38783;SDS011;24531;45.502;12.238;2023-10-08T03:04:05;34.53;;;21.15;;
38783;SDS011;24531;45.502;12.238;2023-10-08T03:06:40;32.63;;;20.33;;
38783;SDS011;24531;45.502;12.238;2023-10-08T03:09:06;30.52;;;20.73;;
38783;SDS011;24531;45.502;12.238;2023-10-08T03:11:34;32.55;;;21.98;;
38783;SDS011;24531;45.502;12.238;2023-10-08T03:14:02;35.70;;;21.75;;
38783;SDS011;24531;45.502;12.238;2023-10-08T03:16:28;34.15;;;23.15;;
38783;SDS011;24531;45.502;12.238;2023-10-08T03:18:59;35.95;;;22.13;;
38783;SDS011;24531;45.502;12.238;2023-10-08T03:21:25;32.42;;;22.63;;
38783;SDS011;24531;45.502;12.238;2023-10-08T03:24:03;34.92;;;23.08;;
38783;SDS011;24531;45.502;12.238;2023-10-08T03:26:38;32.47;;;22.02;;
38783;SDS011;24531;45.502;12.238;2023-10-08T03:29:05;34.33;;;21.98;;
38783;SDS011;24531;45.502;12.238;2023-10-08T03:31:40;33.13;;;23.02;;
38783;SDS011;24531;45.502;12.238;2023-10-08T03:34:29;34.42;;;20.77;;
38783;SDS011;24531;45.502;12.238;2023-10-08T03:36:59;33.60;;;21.58;;
38783;SDS011;24531;45.502;12.238;2023-10-08T03:39:30;33.47;;;22.45;;
38783;SDS011;24531;45.502;12.238;2023-10-08T03:42:18;41.47;;;25.08;;
38783;SDS011;24531;45.502;12.238;2023-10-08T03:44:51;41.17;;;25.73;;
38783;SDS011;24531;45.502;12.238;2023-10-08T03:47:20;36.47;;;24.77;;
38783;SDS011;24531;45.502;12.238;2023-10-08T03:49:51;39.80;;;26.30;;
38783;SDS011;24531;45.502;12.238;2023-10-08T03:52:19;42.45;;;26.15;;
38783;SDS011;24531;45.502;12.238;2023-10-08T03:54:50;42.00;;;27.15;;
38783;SDS011;24531;45.502;12.238;2023-10-08T03:57:38;35.22;;;24.85;;
38783;SDS011;24531;45.502;12.238;2023-10-08T04:00:10;41.72;;;26.10;;
38783;SDS011;24531;45.502;12.238;2023-10-08T04:02:53;39.70;;;25.77;;
38783;SDS011;24531;45.502;12.238;2023-10-08T04:05:33;39.92;;;24.85;;
38783;SDS011;24531;45.502;12.238;2023-10-08T04:08:15;42.20;;;26.15;;
38783;SDS011;24531;45.502;12.238;2023-10-08T04:10:49;40.13;;;24.17;;
38783;SDS011;24531;45.502;12.238;2023-10-08T04:13:41;40.83;;;25.20;;
38783;SDS011;24531;45.502;12.238;2023-10-08T04:16:13;41.60;;;26.00;;
38783;SDS011;24531;45.502;12.238;2023-10-08T04:18:43;42.22;;;26.70;;
38783;SDS011;24531;45.502;12.238;2023-10-08T04:21:10;39.17;;;25.95;;
38783;SDS011;24531;45.502;12.238;2023-10-08T04:23:38;37.67;;;26.95;;
38783;SDS011;24531;45.502;12.238;2023-10-08T04:26:09;37.93;;;25.47;;
38783;SDS011;24531;45.502;12.238;2023-10-08T04:28:35;43.88;;;26.08;;
38783;SDS011;24531;45.502;12.238;2023-10-08T04:31:02;37.00;;;24.30;;
38783;SDS011;24531;45.502;12.238;2023-10-08T04:33:43;38.55;;;24.90;;
38783;SDS011;24531;45.502;12.238;2023-10-08T04:36:09;40.17;;;26.30;;
38783;SDS011;24531;45.502;12.238;2023-10-08T04:38:42;36.78;;;24.42;;
38783;SDS011;24531;45.502;12.238;2023-10-08T04:41:10;42.92;;;25.92;;
38783;SDS011;24531;45.502;12.238;2023-10-08T04:43:37;39.20;;;25.20;;
38783;SDS011;24531;45.502;12.238;2023-10-08T04:46:07;38.85;;;25.77;;
38783;SDS011;24531;45.502;12.238;2023-10-08T04:49:05;38.97;;;24.08;;
38783;SDS011;24531;45.502;12.238;2023-10-08T04:51:34;38.13;;;24.23;;
38783;SDS011;24531;45.502;12.238;2023-10-08T04:54:09;39.42;;;25.40;;
38783;SDS011;24531;45.502;12.238;2023-10-08T04:56:41;38.55;;;25.10;;
38783;SDS011;24531;45.502;12.238;2023-10-08T04:59:07;41.75;;;25.83;;
38783;SDS011;24531;45.502;12.238;2023-10-08T05:01:36;41.80;;;26.63;;
38783;SDS011;24531;45.502;12.238;2023-10-08T05:04:27;39.97;;;26.42;;
38783;SDS011;24531;45.502;12.238;2023-10-08T05:06:58;42.58;;;25.38;;
38783;SDS011;24531;45.502;12.238;2023-10-08T05:09:41;39.17;;;25.50;;
38783;SDS011;24531;45.502;12.238;2023-10-08T05:12:27;40.15;;;26.70;;
38783;SDS011;24531;45.502;12.238;2023-10-08T05:15:13;40.22;;;25.83;;
38783;SDS011;24531;45.502;12.238;2023-10-08T05:17:39;42.58;;;26.77;;
38783;SDS011;24531;45.502;12.238;2023-10-08T05:20:15;40.70;;;26.73;;
38783;SDS011;24531;45.502;12.238;2023-10-08T05:23:00;38.53;;;26.13;;
38783;SDS011;24531;45.502;12.238;2023-10-08T05:25:45;36.53;;;25.30;;
38783;SDS011;24531;45.502;12.238;2023-10-08T05:28:27;42.10;;;24.88;;
38783;SDS011;24531;45.502;12.238;2023-10-08T05:30:54;39.42;;;25.83;;
38783;SDS011;24531;45.502;12.238;2023-10-08T05:33:36;38.42;;;26.38;;
38783;SDS011;24531;45.502;12.238;2023-10-08T05:36:20;38.30;;;24.83;;
38783;SDS011;24531;45.502;12.238;2023-10-08T05:39:16;36.90;;;24.33;;
38783;SDS011;24531;45.502;12.238;2023-10-08T05:42:14;34.53;;;22.48;;
38783;SDS011;24531;45.502;12.238;2023-10-08T05:44:56;38.03;;;21.77;;
38783;SDS011;24531;45.502;12.238;2023-10-08T05:47:34;39.90;;;24.65;;
38783;SDS011;24531;45.502;12.238;2023-10-08T05:50:00;38.40;;;24.38;;
38783;SDS011;24531;45.502;12.238;2023-10-08T05:52:46;35.15;;;24.20;;
38783;SDS011;24531;45.502;12.238;2023-10-08T05:55:18;35.20;;;21.88;;
38783;SDS011;24531;45.502;12.238;2023-10-08T05:57:53;32.08;;;22.17;;
38783;SDS011;24531;45.502;12.238;2023-10-08T06:00:40;31.38;;;20.63;;
38783;SDS011;24531;45.502;12.238;2023-10-08T06:06:02;31.45;;;18.95;;
38783;SDS011;24531;45.502;12.238;2023-10-08T06:08:38;30.58;;;20.50;;
38783;SDS011;24531;45.502;12.238;2023-10-08T06:11:22;31.13;;;20.65;;
38783;SDS011;24531;45.502;12.238;2023-10-08T06:14:14;25.88;;;19.17;;
38783;SDS011;24531;45.502;12.238;2023-10-08T06:16:53;34.10;;;20.15;;
38783;SDS011;24531;45.502;12.238;2023-10-08T06:19:38;29.55;;;20.25;;
38783;SDS011;24531;45.502;12.238;2023-10-08T06:22:08;26.80;;;18.63;;
38783;SDS011;24531;45.502;12.238;2023-10-08T06:24:33;35.00;;;17.83;;
38783;SDS011;24531;45.502;12.238;2023-10-08T06:27:03;29.88;;;17.45;;
38783;SDS011;24531;45.502;12.238;2023-10-08T06:29:30;24.67;;;17.67;;
38783;SDS011;24531;45.502;12.238;2023-10-08T06:31:57;26.77;;;17.50;;
38783;SDS011;24531;45.502;12.238;2023-10-08T06:34:27;25.00;;;16.20;;
38783;SDS011;24531;45.502;12.238;2023-10-08T06:36:53;27.40;;;17.25;;
38783;SDS011;24531;45.502;12.238;2023-10-08T06:39:21;25.10;;;15.98;;
38783;SDS011;24531;45.502;12.238;2023-10-08T06:41:51;25.92;;;17.30;;
38783;SDS011;24531;45.502;12.238;2023-10-08T06:44:18;28.75;;;17.25;;
38783;SDS011;24531;45.502;12.238;2023-10-08T06:46:44;29.08;;;17.95;;
38783;SDS011;24531;45.502;12.238;2023-10-08T06:49:10;29.58;;;17.67;;
38783;SDS011;24531;45.502;12.238;2023-10-08T06:51:39;26.17;;;17.00;;
38783;SDS011;24531;45.502;12.238;2023-10-08T06:54:08;25.07;;;17.63;;
38783;SDS011;24531;45.502;12.238;2023-10-08T06:56:41;26.42;;;16.50;;
38783;SDS011;24531;45.502;12.238;2023-10-08T06:59:11;26.50;;;17.92;;
38783;SDS011;24531;45.502;12.238;2023-10-08T07:01:38;27.95;;;17.42;;
38783;SDS011;24531;45.502;12.238;2023-10-08T07:04:06;25.70;;;17.63;;
38783;SDS011;24531;45.502;12.238;2023-10-08T07:06:46;29.45;;;17.45;;
38783;SDS011;24531;45.502;12.238;2023-10-08T07:09:12;29.27;;;18.58;;
38783;SDS011;24531;45.502;12.238;2023-10-08T07:11:56;24.73;;;16.95;;
38783;SDS011;24531;45.502;12.238;2023-10-08T07:14:23;25.88;;;17.92;;
38783;SDS011;24531;45.502;12.238;2023-10-08T07:16:52;33.25;;;19.10;;
38783;SDS011;24531;45.502;12.238;2023-10-08T07:19:24;28.60;;;18.38;;
38783;SDS011;24531;45.502;12.238;2023-10-08T07:21:58;26.73;;;17.85;;
38783;SDS011;24531;45.502;12.238;2023-10-08T07:24:30;24.90;;;16.55;;
38783;SDS011;24531;45.502;12.238;2023-10-08T07:27:00;27.70;;;18.05;;
38783;SDS011;24531;45.502;12.238;2023-10-08T07:29:30;30.13;;;17.08;;
38783;SDS011;24531;45.502;12.238;2023-10-08T07:31:57;26.10;;;17.35;;
38783;SDS011;24531;45.502;12.238;2023-10-08T07:34:34;26.58;;;17.90;;
38783;SDS011;24531;45.502;12.238;2023-10-08T07:37:00;26.70;;;17.15;;
38783;SDS011;24531;45.502;12.238;2023-10-08T07:39:26;27.15;;;17.58;;
38783;SDS011;24531;45.502;12.238;2023-10-08T07:42:03;27.20;;;18.33;;
38783;SDS011;24531;45.502;12.238;2023-10-08T07:44:33;29.77;;;17.77;;
38783;SDS011;24531;45.502;12.238;2023-10-08T07:47:04;23.00;;;16.50;;
38783;SDS011;24531;45.502;12.238;2023-10-08T07:49:33;24.42;;;17.63;;
38783;SDS011;24531;45.502;12.238;2023-10-08T07:52:01;27.20;;;16.92;;
38783;SDS011;24531;45.502;12.238;2023-10-08T07:54:27;29.15;;;18.08;;
38783;SDS011;24531;45.502;12.238;2023-10-08T07:56:53;27.33;;;16.92;;
38783;SDS011;24531;45.502;12.238;2023-10-08T07:59:36;28.08;;;16.88;;
38783;SDS011;24531;45.502;12.238;2023-10-08T08:02:12;22.70;;;15.45;;
38783;SDS011;24531;45.502;12.238;2023-10-08T08:04:40;25.90;;;15.38;;
38783;SDS011;24531;45.502;12.238;2023-10-08T08:07:10;27.70;;;16.15;;
38783;SDS011;24531;45.502;12.238;2023-10-08T08:09:43;29.05;;;16.98;;
38783;SDS011;24531;45.502;12.238;2023-10-08T08:12:15;23.90;;;16.17;;
38783;SDS011;24531;45.502;12.238;2023-10-08T08:14:41;26.98;;;17.30;;
38783;SDS011;24531;45.502;12.238;2023-10-08T08:17:08;26.30;;;17.15;;
38783;SDS011;24531;45.502;12.238;2023-10-08T08:19:48;27.27;;;16.42;;
38783;SDS011;24531;45.502;12.238;2023-10-08T08:22:19;25.15;;;16.48;;
38783;SDS011;24531;45.502;12.238;2023-10-08T08:24:55;28.08;;;16.73;;
38783;SDS011;24531;45.502;12.238;2023-10-08T08:27:30;26.05;;;15.90;;
38783;SDS011;24531;45.502;12.238;2023-10-08T08:29:59;20.83;;;14.65;;
38783;SDS011;24531;45.502;12.238;2023-10-08T08:32:41;25.77;;;16.07;;
38783;SDS011;24531;45.502;12.238;2023-10-08T08:35:10;30.95;;;14.82;;
38783;SDS011;24531;45.502;12.238;2023-10-08T08:37:37;24.85;;;14.77;;
38783;SDS011;24531;45.502;12.238;2023-10-08T08:40:06;21.58;;;14.27;;
38783;SDS011;24531;45.502;12.238;2023-10-08T08:42:45;21.73;;;12.75;;
38783;SDS011;24531;45.502;12.238;2023-10-08T08:45:22;22.70;;;13.90;;
38783;SDS011;24531;45.502;12.238;2023-10-08T08:47:51;18.50;;;14.15;;
38783;SDS011;24531;45.502;12.238;2023-10-08T08:50:17;23.67;;;15.15;;
38783;SDS011;24531;45.502;12.238;2023-10-08T08:52:44;19.38;;;14.15;;
38783;SDS011;24531;45.502;12.238;2023-10-08T08:55:13;24.90;;;14.70;;
38783;SDS011;24531;45.502;12.238;2023-10-08T08:57:43;23.73;;;14.38;;
38783;SDS011;24531;45.502;12.238;2023-10-08T09:00:13;19.90;;;14.25;;
38783;SDS011;24531;45.502;12.238;2023-10-08T09:02:41;20.65;;;14.68;;
38783;SDS011;24531;45.502;12.238;2023-10-08T09:05:09;22.63;;;14.65;;
38783;SDS011;24531;45.502;12.238;2023-10-08T09:07:58;25.83;;;15.02;;
38783;SDS011;24531;45.502;12.238;2023-10-08T09:10:30;19.83;;;13.32;;
38783;SDS011;24531;45.502;12.238;2023-10-08T09:13:01;22.73;;;13.75;;
38783;SDS011;24531;45.502;12.238;2023-10-08T09:15:28;25.08;;;14.43;;
38783;SDS011;24531;45.502;12.238;2023-10-08T09:17:55;21.35;;;14.13;;
38783;SDS011;24531;45.502;12.238;2023-10-08T09:20:21;24.08;;;14.23;;
38783;SDS011;24531;45.502;12.238;2023-10-08T09:25:35;21.88;;;13.95;;
38783;SDS011;24531;45.502;12.238;2023-10-08T09:28:01;21.00;;;14.40;;
38783;SDS011;24531;45.502;12.238;2023-10-08T09:30:32;22.13;;;14.52;;
38783;SDS011;24531;45.502;12.238;2023-10-08T09:33:03;21.17;;;13.57;;
38783;SDS011;24531;45.502;12.238;2023-10-08T09:35:31;24.67;;;13.88;;
38783;SDS011;24531;45.502;12.238;2023-10-08T09:37:57;19.77;;;13.93;;
38783;SDS011;24531;45.502;12.238;2023-10-08T09:40:23;23.25;;;12.98;;
38783;SDS011;24531;45.502;12.238;2023-10-08T09:42:50;23.13;;;14.80;;
38783;SDS011;24531;45.502;12.238;2023-10-08T09:45:17;21.30;;;13.82;;
38783;SDS011;24531;45.502;12.238;2023-10-08T09:47:49;23.75;;;14.77;;
38783;SDS011;24531;45.502;12.238;2023-10-08T09:50:17;25.80;;;14.10;;
38783;SDS011;24531;45.502;12.238;2023-10-08T09:53:07;23.30;;;14.35;;
38783;SDS011;24531;45.502;12.238;2023-10-08T09:55:42;26.65;;;13.52;;
38783;SDS011;24531;45.502;12.238;2023-10-08T10:00:41;28.92;;;14.93;;
38783;SDS011;24531;45.502;12.238;2023-10-08T10:03:09;21.48;;;15.25;;
38783;SDS011;24531;45.502;12.238;2023-10-08T10:05:37;28.08;;;15.25;;
38783;SDS011;24531;45.502;12.238;2023-10-08T10:08:03;25.77;;;15.07;;
38783;SDS011;24531;45.502;12.238;2023-10-08T10:10:35;24.10;;;15.57;;
38783;SDS011;24531;45.502;12.238;2023-10-08T10:13:03;28.15;;;15.57;;
38783;SDS011;24531;45.502;12.238;2023-10-08T10:15:33;24.90;;;15.23;;
38783;SDS011;24531;45.502;12.238;2023-10-08T10:18:09;23.67;;;13.82;;
38783;SDS011;24531;45.502;12.238;2023-10-08T10:20:52;27.15;;;15.52;;
38783;SDS011;24531;45.502;12.238;2023-10-08T10:23:37;23.60;;;14.77;;
38783;SDS011;24531;45.502;12.238;2023-10-08T10:26:04;26.90;;;15.32;;
38783;SDS011;24531;45.502;12.238;2023-10-08T10:29:01;25.60;;;15.85;;
38783;SDS011;24531;45.502;12.238;2023-10-08T10:31:39;23.73;;;14.45;;
38783;SDS011;24531;45.502;12.238;2023-10-08T10:34:18;27.40;;;16.55;;
38783;SDS011;24531;45.502;12.238;2023-10-08T10:36:52;24.83;;;15.25;;
38783;SDS011;24531;45.502;12.238;2023-10-08T10:39:21;30.88;;;16.55;;
38783;SDS011;24531;45.502;12.238;2023-10-08T10:41:59;24.65;;;15.40;;
38783;SDS011;24531;45.502;12.238;2023-10-08T10:44:27;24.98;;;16.17;;
38783;SDS011;24531;45.502;12.238;2023-10-08T10:46:55;25.80;;;15.90;;
38783;SDS011;24531;45.502;12.238;2023-10-08T10:49:39;31.90;;;16.00;;
38783;SDS011;24531;45.502;12.238;2023-10-08T10:52:24;25.70;;;14.25;;
38783;SDS011;24531;45.502;12.238;2023-10-08T10:57:43;29.67;;;14.48;;
38783;SDS011;24531;45.502;12.238;2023-10-08T11:00:36;30.50;;;17.48;;
38783;SDS011;24531;45.502;12.238;2023-10-08T11:03:03;30.45;;;15.85;;
38783;SDS011;24531;45.502;12.238;2023-10-08T11:05:35;25.15;;;15.98;;
38783;SDS011;24531;45.502;12.238;2023-10-08T11:08:03;28.38;;;16.92;;
38783;SDS011;24531;45.502;12.238;2023-10-08T11:10:38;27.50;;;17.70;;
38783;SDS011;24531;45.502;12.238;2023-10-08T11:13:08;32.08;;;18.02;;
38783;SDS011;24531;45.502;12.238;2023-10-08T11:15:40;29.90;;;17.10;;
38783;SDS011;24531;45.502;12.238;2023-10-08T11:18:15;30.02;;;16.88;;
38783;SDS011;24531;45.502;12.238;2023-10-08T11:20:42;27.67;;;17.17;;
38783;SDS011;24531;45.502;12.238;2023-10-08T11:26:04;27.33;;;16.35;;
38783;SDS011;24531;45.502;12.238;2023-10-08T11:28:39;27.92;;;16.48;;
38783;SDS011;24531;45.502;12.238;2023-10-08T11:31:11;26.40;;;15.45;;
38783;SDS011;24531;45.502;12.238;2023-10-08T11:33:42;29.63;;;15.20;;
38783;SDS011;24531;45.502;12.238;2023-10-08T11:36:19;26.00;;;15.85;;
38783;SDS011;24531;45.502;12.238;2023-10-08T11:38:45;31.55;;;15.73;;
38783;SDS011;24531;45.502;12.238;2023-10-08T11:41:16;24.98;;;15.20;;
38783;SDS011;24531;45.502;12.238;2023-10-08T11:43:52;21.45;;;15.07;;
38783;SDS011;24531;45.502;12.238;2023-10-08T11:46:28;25.02;;;14.93;;
38783;SDS011;24531;45.502;12.238;2023-10-08T11:48:59;22.85;;;13.43;;
38783;SDS011;24531;45.502;12.238;2023-10-08T11:51:35;25.55;;;14.23;;
38783;SDS011;24531;45.502;12.238;2023-10-08T11:54:01;25.77;;;14.43;;
38783;SDS011;24531;45.502;12.238;2023-10-08T11:56:30;24.88;;;14.27;;
38783;SDS011;24531;45.502;12.238;2023-10-08T11:58:58;22.98;;;15.05;;
38783;SDS011;24531;45.502;12.238;2023-10-08T12:01:26;32.03;;;15.23;;
38783;SDS011;24531;45.502;12.238;2023-10-08T12:03:55;24.30;;;12.93;;
38783;SDS011;24531;45.502;12.238;2023-10-08T12:06:24;23.42;;;12.98;;
38783;SDS011;24531;45.502;12.238;2023-10-08T12:08:54;21.35;;;12.77;;
38783;SDS011;24531;45.502;12.238;2023-10-08T12:11:23;22.60;;;13.50;;
38783;SDS011;24531;45.502;12.238;2023-10-08T12:16:21;24.90;;;13.90;;
38783;SDS011;24531;45.502;12.238;2023-10-08T12:18:48;23.63;;;13.90;;
38783;SDS011;24531;45.502;12.238;2023-10-08T12:21:18;23.23;;;11.95;;
38783;SDS011;24531;45.502;12.238;2023-10-08T12:23:44;32.88;;;18.38;;
38783;SDS011;24531;45.502;12.238;2023-10-08T12:26:14;27.33;;;17.80;;
38783;SDS011;24531;45.502;12.238;2023-10-08T12:28:47;29.42;;;17.48;;
38783;SDS011;24531;45.502;12.238;2023-10-08T12:31:14;25.33;;;16.38;;
38783;SDS011;24531;45.502;12.238;2023-10-08T12:33:52;23.73;;;16.25;;
38783;SDS011;24531;45.502;12.238;2023-10-08T12:36:19;32.83;;;19.15;;
38783;SDS011;24531;45.502;12.238;2023-10-08T12:38:52;33.25;;;18.92;;
38783;SDS011;24531;45.502;12.238;2023-10-08T12:41:26;32.60;;;20.08;;
38783;SDS011;24531;45.502;12.238;2023-10-08T12:43:52;40.67;;;23.13;;
38783;SDS011;24531;45.502;12.238;2023-10-08T12:46:18;35.45;;;22.60;;
38783;SDS011;24531;45.502;12.238;2023-10-08T12:48:49;42.17;;;24.42;;
38783;SDS011;24531;45.502;12.238;2023-10-08T12:51:19;43.15;;;23.67;;
38783;SDS011;24531;45.502;12.238;2023-10-08T12:53:48;40.08;;;24.38;;
38783;SDS011;24531;45.502;12.238;2023-10-08T12:56:36;40.35;;;23.17;;
38783;SDS011;24531;45.502;12.238;2023-10-08T12:59:10;37.85;;;22.23;;
38783;SDS011;24531;45.502;12.238;2023-10-08T13:01:45;41.42;;;24.27;;
38783;SDS011;24531;45.502;12.238;2023-10-08T13:04:15;40.60;;;24.70;;
38783;SDS011;24531;45.502;12.238;2023-10-08T13:06:54;38.88;;;24.35;;
38783;SDS011;24531;45.502;12.238;2023-10-08T13:09:25;41.53;;;23.83;;
38783;SDS011;24531;45.502;12.238;2023-10-08T13:11:51;33.55;;;21.92;;
38783;SDS011;24531;45.502;12.238;2023-10-08T13:14:23;35.80;;;21.80;;
38783;SDS011;24531;45.502;12.238;2023-10-08T13:16:49;37.85;;;23.38;;
38783;SDS011;24531;45.502;12.238;2023-10-08T13:19:18;42.28;;;23.38;;
38783;SDS011;24531;45.502;12.238;2023-10-08T13:21:44;42.80;;;23.35;;
38783;SDS011;24531;45.502;12.238;2023-10-08T13:24:10;41.03;;;22.88;;
38783;SDS011;24531;45.502;12.238;2023-10-08T13:26:36;37.38;;;23.10;;
38783;SDS011;24531;45.502;12.238;2023-10-08T13:29:03;45.05;;;22.60;;
38783;SDS011;24531;45.502;12.238;2023-10-08T13:31:30;38.90;;;22.23;;
38783;SDS011;24531;45.502;12.238;2023-10-08T13:34:01;36.20;;;22.00;;
38783;SDS011;24531;45.502;12.238;2023-10-08T13:36:28;39.45;;;21.45;;
38783;SDS011;24531;45.502;12.238;2023-10-08T13:38:54;35.75;;;21.45;;
38783;SDS011;24531;45.502;12.238;2023-10-08T13:41:20;38.38;;;21.88;;
38783;SDS011;24531;45.502;12.238;2023-10-08T13:43:47;37.08;;;22.88;;
38783;SDS011;24531;45.502;12.238;2023-10-08T13:46:14;40.10;;;22.58;;
38783;SDS011;24531;45.502;12.238;2023-10-08T13:48:42;40.70;;;24.25;;
38783;SDS011;24531;45.502;12.238;2023-10-08T13:51:20;35.10;;;21.45;;
38783;SDS011;24531;45.502;12.238;2023-10-08T13:53:51;34.55;;;22.98;;
38783;SDS011;24531;45.502;12.238;2023-10-08T13:56:28;39.17;;;21.80;;
38783;SDS011;24531;45.502;12.238;2023-10-08T13:58:56;38.80;;;22.60;;
38783;SDS011;24531;45.502;12.238;2023-10-08T14:01:38;43.80;;;24.33;;
38783;SDS011;24531;45.502;12.238;2023-10-08T14:04:06;47.13;;;24.52;;
38783;SDS011;24531;45.502;12.238;2023-10-08T14:06:35;45.00;;;22.40;;
38783;SDS011;24531;45.502;12.238;2023-10-08T14:09:22;39.72;;;23.00;;
38783;SDS011;24531;45.502;12.238;2023-10-08T14:11:56;31.40;;;20.23;;
38783;SDS011;24531;45.502;12.238;2023-10-08T14:14:21;38.17;;;21.85;;
38783;SDS011;24531;45.502;12.238;2023-10-08T14:16:49;43.75;;;23.45;;
38783;SDS011;24531;45.502;12.238;2023-10-08T14:19:19;40.42;;;23.02;;
38783;SDS011;24531;45.502;12.238;2023-10-08T14:21:53;42.97;;;23.92;;
38783;SDS011;24531;45.502;12.238;2023-10-08T14:24:25;36.30;;;21.77;;
38783;SDS011;24531;45.502;12.238;2023-10-08T14:26:54;46.28;;;23.15;;
38783;SDS011;24531;45.502;12.238;2023-10-08T14:29:21;35.33;;;20.25;;
38783;SDS011;24531;45.502;12.238;2023-10-08T14:31:49;37.63;;;22.98;;
38783;SDS011;24531;45.502;12.238;2023-10-08T14:34:15;38.22;;;21.58;;
38783;SDS011;24531;45.502;12.238;2023-10-08T14:36:41;35.20;;;20.70;;
38783;SDS011;24531;45.502;12.238;2023-10-08T14:39:29;38.15;;;22.05;;
38783;SDS011;24531;45.502;12.238;2023-10-08T14:42:14;40.25;;;20.05;;
38783;SDS011;24531;45.502;12.238;2023-10-08T14:44:58;35.63;;;19.10;;
38783;SDS011;24531;45.502;12.238;2023-10-08T14:47:24;37.60;;;21.88;;
38783;SDS011;24531;45.502;12.238;2023-10-08T14:49:51;33.15;;;19.83;;
38783;SDS011;24531;45.502;12.238;2023-10-08T14:52:16;37.35;;;20.50;;
38783;SDS011;24531;45.502;12.238;2023-10-08T14:54:42;36.95;;;21.85;;